Data for 08/10/2013

Time Sea-Level Adjusted Pressure Absolute Pressure Temperature Relative Humidity Dew Point   
(mb) (inHg) (mb) (inHg) (C) (F) (%) (C) (F)
00:05 1022 30.18 851 25.13 17.3 63.2 57 8.7 47.7
00:10 1022 30.18 851 25.13 16.7 62.1 59 8.8 47.9
00:15 1022 30.18 851 25.13 16.3 61.4 58 8.2 46.7
00:20 1022 30.18 851 25.13 16.3 61.3 59 8.4 47.1
00:25 1022 30.18 851 25.13 16 60.8 61 8.5 47.3
00:30 1022 30.18 851 25.13 15.6 60.2 67 9.5 49.1
00:35 1022 30.18 851 25.13 15.4 59.7 62 8.3 47
00:40 1022 30.18 851 25.13 15.1 59.1 64 8.3 47
00:45 1022 30.18 851 25.13 14.6 58.3 66 8.3 47
00:50 1022 30.18 851 25.13 14.2 57.5 68 8.4 47.1
00:55 1022 30.18 851 25.13 14.1 57.4 64 7.5 45.6
01:00 1022 30.18 851 25.13 14.5 58 64 7.7 45.9
01:05 1022 30.18 851 25.13 14.5 58 65 8 46.4
01:10 1022 30.18 851 25.13 14.5 58 64 7.9 46.2
01:15 1022 30.18 851 25.13 14.3 57.8 64 7.7 45.9
01:20 1022 30.18 851 25.13 14.3 57.8 65 7.8 46
01:25 1022 30.18 851 25.13 14.1 57.4 66 8 46.3
01:30 1021 30.15 851 25.13 14.2 57.6 65 7.7 45.9
01:35 1021 30.15 850 25.1 14.4 58 65 8.1 46.5
01:40 1021 30.15 850 25.1 14.3 57.8 66 8.1 46.5
01:45 1021 30.15 850 25.1 14.5 58.1 66 8.2 46.7
01:50 1021 30.15 850 25.1 14.6 58.2 65 8.1 46.7
01:55 1021 30.15 850 25.1 14.9 58.8 64 8.2 46.8
02:00 1021 30.15 851 25.13 15.2 59.3 63 8.3 46.9
02:05 1021 30.15 851 25.13 15.4 59.6 63 8.4 47.1
02:10 1021 30.15 850 25.1 15.3 59.5 62 8.3 46.9
02:15 1021 30.15 850 25.1 15.3 59.6 62 8.2 46.7
02:20 1021 30.15 850 25.1 15.6 60 63 8.7 47.7
02:25 1021 30.15 850 25.1 15.7 60.2 64 8.8 47.9
02:30 1021 30.15 850 25.1 15.8 60.5 63 8.9 48.1
02:35 1021 30.15 850 25.1 16 60.9 63 9 48.3
02:40 1021 30.15 850 25.1 16 60.7 63 9 48.1
02:45 1021 30.15 850 25.1 15.8 60.5 62 8.6 47.4
02:50 1021 30.15 850 25.1 15.9 60.5 62 8.7 47.7
02:55 1021 30.15 850 25.1 15.8 60.4 65 9.3 48.7
03:00 1021 30.15 850 25.1 15.7 60.3 66 9.4 48.9
03:05 1021 30.15 850 25.1 15.7 60.3 66 9.4 49
03:10 1021 30.15 850 25.1 15.7 60.2 66 9.4 49
03:15 1021 30.15 850 25.1 15.6 60 66 9.4 48.9
03:20 1021 30.15 850 25.1 15.4 59.7 67 9.4 49
03:25 1021 30.15 850 25.1 15.3 59.5 67 9.3 48.8
03:30 1021 30.15 850 25.1 15.3 59.5 67 9.3 48.7
03:35 1021 30.15 850 25.1 15.3 59.5 67 9.3 48.8
03:40 1021 30.15 850 25.1 15.2 59.3 68 9.4 48.9
03:45 1021 30.15 850 25.1 14.9 58.8 69 9.3 48.7
03:50 1021 30.15 850 25.1 14.8 58.7 69 9.3 48.7
03:55 1021 30.15 850 25.1 14.7 58.5 70 9.3 48.7
04:00 1021 30.15 850 25.1 14.7 58.4 70 9.3 48.7
04:05 1021 30.15 850 25.1 14.7 58.5 70 9.3 48.8
04:10 1021 30.15 850 25.1 14.7 58.4 70 9.3 48.8
04:15 1021 30.15 850 25.1 14.5 58.2 71 9.3 48.8
04:20 1021 30.15 850 25.1 14.3 57.8 72 9.4 48.9
04:25 1021 30.15 850 25.1 14.3 57.7 72 9.4 49
04:30 1021 30.15 850 25.1 14.3 57.7 73 9.6 49.2
04:35 1021 30.15 850 25.1 14.3 57.7 74 9.6 49.4
04:40 1021 30.15 850 25.1 14.2 57.5 74 9.6 49.3
04:45 1021 30.15 851 25.13 14.1 57.3 74 9.5 49.1
04:50 1021 30.15 851 25.13 13.6 56.5 72 8.7 47.7
04:55 1021 30.15 851 25.13 13.1 55.5 71 7.9 46.2
05:00 1021 30.15 851 25.13 12.9 55.3 70 7.6 45.7
05:05 1021 30.15 851 25.13 12.5 54.5 72 7.6 45.7
05:10 1021 30.15 851 25.13 12 53.6 71 6.9 44.4
05:15 1021 30.15 851 25.13 12 53.5 70 6.6 43.9
05:20 1022 30.18 851 25.13 11.9 53.4 69 6.5 43.7
05:25 1022 30.18 851 25.13 12 53.6 67 6.2 43.2
05:30 1022 30.18 851 25.13 12.4 54.4 67 6.5 43.8
05:35 1022 30.18 851 25.13 12.1 53.7 69 6.6 43.9
05:40 1022 30.18 851 25.13 11.9 53.3 72 6.9 44.4
05:45 1022 30.18 851 25.13 12 53.6 71 6.9 44.5
05:50 1022 30.18 851 25.13 12.2 53.9 70 7 44.6
05:55 1022 30.18 851 25.13 12.1 53.7 72 7.1 44.8
06:00 1022 30.18 851 25.13 11.6 53 72 6.7 44.1
06:05 1022 30.18 851 25.13 11.5 52.6 71 6.4 43.6
06:10 1022 30.18 851 25.13 11.7 53 68 5.9 42.7
06:15 1022 30.18 851 25.13 12.1 53.7 68 6.3 43.4
06:20 1022 30.18 851 25.13 11.9 53.4 69 6.5 43.8
06:25 1022 30.18 851 25.13 11.8 53.2 70 6.5 43.6
06:30 1022 30.18 851 25.13 12 53.7 69 6.6 43.8
06:35 1022 30.18 851 25.13 12.5 54.5 67 6.7 44
06:40 1022 30.18 851 25.13 12.7 54.9 67 6.8 44.3
06:45 1022 30.18 851 25.13 12.9 55.2 68 7.1 44.8
06:50 1022 30.18 851 25.13 13.1 55.7 68 7.3 45.2
06:55 1022 30.18 851 25.13 13.5 56.3 67 7.5 45.4
07:00 1022 30.18 851 25.13 13.9 57 66 7.8 46
07:05 1022 30.18 851 25.13 14.2 57.5 66 8 46.4
07:10 1022 30.18 851 25.13 14.5 58.2 65 8 46.5
07:15 1022 30.18 851 25.13 14.9 58.7 64 8.2 46.7
07:20 1022 30.18 851 25.13 15 59 66 8.7 47.6
07:25 1022 30.18 851 25.13 15.4 59.8 63 8.5 47.3
07:30 1022 30.18 851 25.13 15.4 59.7 63 8.5 47.3
07:35 1022 30.18 851 25.13 15.5 59.9 63 8.7 47.6
07:40 1022 30.18 851 25.13 15.8 60.5 61 8.5 47.3
07:45 1022 30.18 851 25.13 16.1 61.1 60 8.4 47.2
07:50 1022 30.18 851 25.13 16.5 61.7 58 8.3 46.9
07:55 1022 30.18 851 25.13 16.8 62.3 58 8.7 47.7
08:00 1022 30.18 851 25.13 17 62.7 57 8.6 47.5
08:05 1022 30.18 851 25.13 17.4 63.3 55 8.4 47.1
08:10 1022 30.18 851 25.13 17.8 64 56 8.9 48.1
08:15 1022 30.18 851 25.13 17.8 64.1 56 9 48.2
08:20 1022 30.18 851 25.13 17.6 63.7 56 8.9 48.1
08:25 1022 30.18 851 25.13 17.8 64 56 9 48.2
08:30 1022 30.18 851 25.13 18.5 65.2 51 8.4 47.1
08:35 1022 30.18 851 25.13 18.9 66.1 50 8.5 47.4
08:40 1022 30.18 851 25.13 19.7 67.4 48 8.6 47.5
08:45 1022 30.18 851 25.13 19.8 67.7 46 8.1 46.5
08:50 1022 30.18 851 25.13 20.1 68.1 43 7.3 45.2
08:55 1022 30.18 851 25.13 20.2 68.3 45 8 46.4
09:00 1022 30.18 851 25.13 20.6 69 45 8.5 47.3
09:05 1022 30.18 851 25.13 20.5 68.9 45 8.4 47.1
09:10 1022 30.18 851 25.13 20.2 68.4 44 7.7 45.8
09:15 1022 30.18 851 25.13 20.3 68.5 44 7.9 46.2
09:20 1022 30.18 851 25.13 20.5 68.8 45 8.1 46.6
09:25 1022 30.18 851 25.13 20.4 68.7 44 7.9 46.1
09:30 1022 30.18 851 25.13 20.8 69.5 42 7.6 45.6
09:35 1022 30.18 851 25.13 21.5 70.6 40 7.3 45.2
09:40 1022 30.18 851 25.13 21.6 70.9 39 7.1 44.8
09:45 1022 30.18 851 25.13 22 71.7 38 7.3 45.1
09:50 1022 30.18 851 25.13 22.2 72 38 7.5 45.5
09:55 1022 30.18 851 25.13 22.8 73 34 6.2 43.2
10:00 1022 30.18 851 25.13 22.4 72.3 34 5.9 42.6
10:05 1022 30.18 851 25.13 22.1 71.7 34 5.7 42.2
10:10 1022 30.18 851 25.13 22.6 72.6 35 6.5 43.7
10:15 1022 30.18 851 25.13 23.2 73.8 38 8.3 47
10:20 1022 30.18 851 25.13 22.1 71.7 43 9.1 48.4
10:25 1022 30.18 851 25.13 21.8 71.3 41 8.1 46.6
10:30 1022 30.18 851 25.13 22.4 72.4 39 8 46.5
10:35 1022 30.18 851 25.13 22.5 72.6 42 9 48.3
10:40 1022 30.18 851 25.13 23.1 73.5 39 8.5 47.3
10:45 1022 30.18 851 25.13 23.7 74.6 37 8.4 47.2
10:50 1022 30.18 851 25.13 23.5 74.3 38 8.6 47.6
10:55 1022 30.18 851 25.13 23.7 74.6 38 8.8 47.8
11:00 1022 30.18 851 25.13 23.8 74.9 36 8.2 46.8
11:05 1022 30.18 851 25.13 23.4 74.2 40 9.4 48.8
11:10 1022 30.18 851 25.13 23.5 74.4 38 8.8 47.8
11:15 1021 30.15 851 25.13 23.4 74.2 38 8.4 47.2
11:20 1021 30.15 851 25.13 24.1 75.3 35 7.9 46.2
11:25 1021 30.15 851 25.13 23.6 74.4 39 8.9 48
11:30 1021 30.15 851 25.13 23 73.4 36 7.3 45.1
11:35 1021 30.15 851 25.13 23.7 74.7 36 8 46.5
11:40 1021 30.15 850 25.1 23.7 74.7 36 7.8 46.1
11:45 1021 30.15 850 25.1 24.4 75.9 33 7.2 44.9
11:50 1021 30.15 850 25.1 24.2 75.5 33 7.2 45
11:55 1021 30.15 850 25.1 24.4 75.9 32 6.8 44.3
12:00 1021 30.15 850 25.1 25.1 77.1 30 6.6 43.9
12:05 1021 30.15 850 25.1 25.7 78.3 30 7.2 45
12:10 1021 30.15 850 25.1 26.1 79 30 7.2 45
12:15 1021 30.15 850 25.1 26.5 79.6 27 6.2 43.2
12:20 1021 30.15 850 25.1 26.2 79.2 29 7.1 44.8
12:25 1021 30.15 850 25.1 25.9 78.6 29 6.9 44.3
12:30 1021 30.15 850 25.1 26 78.8 30 7.2 45
12:35 1021 30.15 850 25.1 26 78.8 29 7.1 44.7
12:40 1021 30.15 850 25.1 25.6 78 30 6.8 44.2
12:45 1021 30.15 850 25.1 26.5 79.6 28 6.9 44.3
12:50 1021 30.15 850 25.1 26.9 80.5 28 6.9 44.5
12:55 1021 30.15 850 25.1 26.4 79.5 28 6.6 43.8
13:00 1021 30.15 850 25.1 25.9 78.6 29 6.8 44.2
13:05 1021 30.15 850 25.1 25.3 77.5 30 6.7 44.1
13:10 1021 30.15 850 25.1 25.8 78.5 29 6.5 43.7
13:15 1021 30.15 850 25.1 25.8 78.4 28 6.4 43.5
13:20 1021 30.15 850 25.1 25.9 78.6 29 7 44.5
13:25 1020 30.12 850 25.1 25.2 77.4 32 7.4 45.4
13:30 1020 30.12 850 25.1 24.6 76.3 32 7.1 44.8
13:35 1020 30.12 850 25.1 24.8 76.6 32 7.2 44.9
13:40 1020 30.12 850 25.1 25.3 77.5 35 8.8 47.9
13:45 1020 30.12 849 25.07 25.5 77.8 31 7.2 44.9
13:50 1020 30.12 849 25.07 25.7 78.2 30 7.2 45
13:55 1020 30.12 849 25.07 25.5 78 34 8.6 47.5
14:00 1020 30.12 849 25.07 25.1 77.2 36 9.3 48.8
14:05 1020 30.12 849 25.07 24.7 76.4 34 7.8 46.1
14:10 1020 30.12 849 25.07 24.4 76 34 7.9 46.3
14:15 1020 30.12 849 25.07 24.5 76.1 36 8.8 47.8
14:20 1020 30.12 849 25.07 24.7 76.4 32 7.2 44.9
14:25 1020 30.12 849 25.07 24.6 76.3 34 8 46.3
14:30 1020 30.12 849 25.07 24.6 76.2 34 7.8 46
14:35 1020 30.12 850 25.1 24.6 76.3 35 8.4 47.2
14:40 1020 30.12 850 25.1 24.5 76 38 9.4 48.9
14:45 1020 30.12 850 25.1 24.1 75.4 39 9.4 48.9
14:50 1020 30.12 850 25.1 24.1 75.4 37 8.8 47.8
14:55 1021 30.15 850 25.1 24 75.2 40 9.8 49.7
15:00 1020 30.12 850 25.1 23.8 74.9 40 9.8 49.6
15:05 1020 30.12 849 25.07 24 75.3 38 9.1 48.4
15:10 1020 30.12 849 25.07 24.1 75.4 25 2.9 37.2
15:15 1020 30.12 849 25.07 24.8 76.6 19 -0 32
15:20 1020 30.12 849 25.07 25.5 77.8 17 -0.9 30.3
15:25 1020 30.12 849 25.07 25.4 77.7 18 -0.2 31.7
15:30 1020 30.12 849 25.07 25.1 77.2 21 1.2 34.1
15:35 1020 30.12 849 25.07 24.9 76.8 21 1.5 34.7
15:40 1020 30.12 849 25.07 24.8 76.7 21 1.2 34.1
15:45 1020 30.12 849 25.07 25 76.9 20 1 33.8
15:50 1020 30.12 849 25.07 25 76.9 21 1.1 34
15:55 1020 30.12 849 25.07 24.9 76.9 20 1 33.7
16:00 1020 30.12 849 25.07 25.1 77.2 20 0.7 33.2
16:05 1020 30.12 849 25.07 25.4 77.8 20 0.8 33.5
16:10 1020 30.12 849 25.07 25.8 78.5 15 -2.1 28.1
16:15 1020 30.12 849 25.07 26.2 79.1 18 0.5 32.8
16:20 1020 30.12 849 25.07 26 78.9 18 0.4 32.7
16:25 1020 30.12 849 25.07 26 78.8 19 0.5 33
16:30 1020 30.12 849 25.07 25.9 78.7 19 0.7 33.3
16:35 1020 30.12 849 25.07 25.9 78.5 21 1.9 35.5
16:40 1020 30.12 849 25.07 25.6 78.1 22 2.3 36.1
16:45 1020 30.12 849 25.07 25.3 77.6 21 1.7 35.1
16:50 1020 30.12 849 25.07 25.4 77.7 23 3.2 37.8
16:55 1020 30.12 849 25.07 25.1 77.1 23 2.5 36.6
17:00 1020 30.12 849 25.07 24.9 76.7 24 2.9 37.2
17:05 1020 30.12 849 25.07 25 77 23 2.7 36.9
17:10 1020 30.12 849 25.07 25.2 77.4 22 2.1 35.7
17:15 1020 30.12 849 25.07 25.4 77.7 22 2.3 36.2
17:20 1020 30.12 849 25.07 25.5 77.9 22 2.5 36.6
17:25 1020 30.12 849 25.07 25.5 77.9 22 2.2 36
17:30 1020 30.12 849 25.07 25.3 77.6 22 2.6 36.6
17:35 1020 30.12 849 25.07 25.2 77.3 25 3.7 38.7
17:40 1020 30.12 849 25.07 25 76.9 25 3.6 38.5
17:45 1020 30.12 849 25.07 24.9 76.8 25 3.9 39
17:50 1020 30.12 849 25.07 24.8 76.6 26 4.2 39.5
17:55 1020 30.12 849 25.07 24.8 76.6 25 3.4 38.1
18:00 1020 30.12 849 25.07 24.9 76.8 24 3 37.4
18:05 1020 30.12 849 25.07 24.9 76.9 25 3.6 38.5
18:10 1020 30.12 850 25.1 24.8 76.7 24 3.2 37.8
18:15 1020 30.12 850 25.1 24.7 76.5 25 3.4 38.2
18:20 1020 30.12 850 25.1 24.6 76.4 25 3.8 38.8
18:25 1021 30.15 850 25.1 24.5 76.1 26 4.2 39.5
18:30 1021 30.15 850 25.1 24.3 75.8 28 4.8 40.7
18:35 1021 30.15 850 25.1 24.2 75.5 27 4.5 40
18:40 1021 30.15 850 25.1 23.5 74.3 32 6.3 43.3
18:45 1021 30.15 850 25.1 22.9 73.1 32 5.4 41.8
18:50 1021 30.15 850 25.1 23 73.4 32 5.5 41.9
18:55 1020 30.12 850 25.1 23 73.4 32 5.6 42
19:00 1021 30.15 850 25.1 22.8 73 32 5.6 42.2
19:05 1021 30.15 850 25.1 22.6 72.6 33 5.8 42.4
19:10 1021 30.15 850 25.1 22.2 71.9 35 6 42.9
19:15 1021 30.15 850 25.1 21.4 70.5 39 7.2 45
19:20 1021 30.15 850 25.1 20.6 69 42 7.5 45.4
19:25 1021 30.15 850 25.1 20.4 68.7 41 6.9 44.4
19:30 1021 30.15 850 25.1 20.2 68.3 41 6.7 44
19:35 1021 30.15 850 25.1 20.2 68.4 42 6.9 44.4
19:40 1021 30.15 850 25.1 20.2 68.4 42 7.1 44.7
19:45 1021 30.15 850 25.1 20.3 68.5 38 5.5 41.9
19:50 1021 30.15 850 25.1 20.3 68.6 39 6.2 43.2
19:55 1021 30.15 850 25.1 20.2 68.4 39 5.8 42.4
20:00 1021 30.15 850 25.1 20.2 68.4 39 6 42.7
20:05 1021 30.15 851 25.13 20 68 38 5.6 42
20:10 1021 30.15 851 25.13 20 67.9 34 3.8 38.9
20:15 1021 30.15 850 25.1 20.3 68.5 32 3.3 37.9
20:20 1021 30.15 850 25.1 20.7 69.2 30 2.8 37
20:25 1021 30.15 850 25.1 21 69.8 29 2.7 36.8
20:30 1021 30.15 850 25.1 21 69.8 28 2.2 35.9
20:35 1021 30.15 850 25.1 21.1 70 28 2.2 36
20:40 1021 30.15 851 25.13 21.1 69.9 28 2 35.7
20:45 1021 30.15 851 25.13 21.2 70.1 28 2.2 35.9
20:50 1021 30.15 851 25.13 21.1 69.9 28 2.2 35.9
20:55 1022 30.18 851 25.13 21 69.7 30 3.1 37.6
21:00 1022 30.18 851 25.13 20.7 69.3 29 2.4 36.3
21:05 1021 30.15 851 25.13 20.7 69.3 29 2.3 36.1
21:10 1021 30.15 851 25.13 20.7 69.3 29 2.4 36.3
21:15 1022 30.18 851 25.13 20.6 69.1 30 2.4 36.3
21:20 1022 30.18 851 25.13 20.4 68.7 30 2.5 36.5
21:25 1022 30.18 851 25.13 20.4 68.7 30 2.3 36.1
21:30 1022 30.18 851 25.13 20.5 68.9 30 2.4 36.4
21:35 1022 30.18 851 25.13 20.6 69.1 31 2.8 37.1
21:40 1022 30.18 851 25.13 20.8 69.4 32 3.7 38.6
21:45 1022 30.18 851 25.13 20.5 68.9 33 3.7 38.7
21:50 1022 30.18 851 25.13 20.4 68.8 33 3.9 39
21:55 1022 30.18 851 25.13 20.3 68.6 34 4 39.2
22:00 1022 30.18 851 25.13 20.2 68.4 34 4.1 39.3
22:05 1022 30.18 851 25.13 20.1 68.2 34 4 39.3
22:10 1022 30.18 851 25.13 20 68 34 4 39.2
22:15 1022 30.18 851 25.13 19.9 67.9 35 4.1 39.4
22:20 1022 30.18 851 25.13 19.9 67.7 35 4 39.2
22:25 1022 30.18 851 25.13 19.8 67.6 35 3.9 39.1
22:30 1022 30.18 851 25.13 19.8 67.6 35 3.8 38.9
22:35 1022 30.18 851 25.13 19.8 67.6 34 3.8 38.9
22:40 1022 30.18 851 25.13 19.7 67.5 35 3.9 39
22:45 1022 30.18 851 25.13 19.7 67.4 35 3.7 38.7
22:50 1022 30.18 851 25.13 19.7 67.4 35 3.8 38.9
22:55 1022 30.18 851 25.13 19.6 67.3 34 3.6 38.4
23:00 1022 30.18 851 25.13 19.7 67.4 34 3.5 38.4
23:05 1022 30.18 851 25.13 19.6 67.3 34 3.5 38.3
23:10 1022 30.18 851 25.13 19.7 67.5 33 3.2 37.8
23:15 1022 30.18 851 25.13 19.9 67.7 33 3.3 38
23:20 1022 30.18 851 25.13 19.8 67.6 33 3.3 38
23:25 1022 30.18 851 25.13 19.7 67.4 33 3.3 38
23:30 1022 30.18 851 25.13 19.6 67.3 34 3.3 37.9
23:35 1022 30.18 851 25.13 19.5 67.1 34 3.3 38
23:40 1022 30.18 851 25.13 19.5 67.1 33 3.1 37.6
23:45 1022 30.18 851 25.13 19.5 67.1 34 3.2 37.8
23:50 1022 30.18 851 25.13 19.5 67.1 33 3.1 37.5
23:55 1022 30.18 851 25.13 19.5 67 34 3.2 37.7
24:00 1022 30.18 851 25.13 19.3 66.8 34 3.1 37.7